createdAt,value
2018-04-08T09:17:45.979Z,35.37
2018-04-08T09:22:42.433Z,32.29
2018-04-08T09:25:15.032Z,34.13
2018-04-08T09:27:43.661Z,31.84
2018-04-08T09:30:12.528Z,32.37
2018-04-08T09:32:41.739Z,32.57
2018-04-08T09:35:11.681Z,31.58
2018-04-08T09:37:40.356Z,31.81
2018-04-08T09:40:09.018Z,32.58
2018-04-08T09:42:37.784Z,33.50
2018-04-08T09:45:06.492Z,31.92
2018-04-08T09:47:35.572Z,32.18
2018-04-08T09:50:04.392Z,32.67
2018-04-08T09:52:33.044Z,33.04
2018-04-08T09:55:04.246Z,33.69
2018-04-08T09:57:44.684Z,33.66
2018-04-08T10:03:29.317Z,34.04
2018-04-08T10:05:58.001Z,34.28
2018-04-08T10:08:26.592Z,34.58
2018-04-08T10:10:55.446Z,34.32
2018-04-08T18:06:33.960Z,35.79
2018-04-08T18:09:03.876Z,36.13
2018-04-08T19:02:48.648Z,38.96
2018-04-08T19:05:17.271Z,39.34
2018-04-08T19:07:45.915Z,39.94
2018-04-08T19:12:07.985Z,40.09
2018-04-08T19:14:55.345Z,40.26
2018-04-08T19:17:42.096Z,40.25
2018-04-08T19:20:10.883Z,39.91
2018-04-08T19:22:39.943Z,39.95
2018-04-08T19:25:09.273Z,40.48
2018-04-08T19:27:38.113Z,40.54
2018-04-08T19:30:21.962Z,40.45
2018-04-08T19:32:51.784Z,40.42
2018-04-08T19:35:20.406Z,40.07
2018-04-08T19:37:49.082Z,39.78
2018-04-08T19:40:17.655Z,39.92
2018-04-08T19:42:46.299Z,39.50
2018-04-08T19:45:14.912Z,40.03
2018-04-08T19:47:43.551Z,40.33
2018-04-08T19:50:12.318Z,40.61
2018-04-08T19:52:40.997Z,40.72
2018-04-08T19:55:09.574Z,38.87
